Time,TemperatureF,DewpointF,PressureIn,WindDirection,WindDirectionDegrees,WindSpeedMPH,WindSpeedGustMPH,Humidity,HourlyPrecipIn,Conditions,Clouds,dailyrainin,SolarRadiationWatts/m^2,SoftwareType,DateUTC
2013-01-09 00:00:00,49.0,26.0,-100.00,ENE,73,1.0,4.0,41,0.00,,,0.00,0.000000,,2013-01-09 08:00:00,
2013-01-09 00:22:00,49.0,26.0,-100.00,ENE,73,1.0,4.0,41,0.00,,,0.00,0.000000,,2013-01-09 08:22:00,
2013-01-09 00:32:00,49.0,26.0,-100.00,ENE,73,1.0,4.0,41,0.00,,,0.00,0.000000,,2013-01-09 08:32:00,
2013-01-09 00:43:00,49.0,26.0,-100.00,ENE,73,1.0,4.0,41,0.00,,,0.00,0.000000,,2013-01-09 08:43:00,
2013-01-09 00:53:00,49.0,26.0,-100.00,ENE,73,1.0,4.0,41,0.00,,,0.00,0.000000,,2013-01-09 08:53:00,
2013-01-09 01:00:00,44.0,25.0,-100.00,SSE,153,3.0,4.0,47,0.00,,,0.00,0.000000,,2013-01-09 09:00:00,
2013-01-09 01:22:00,44.0,25.0,-100.00,SSE,153,3.0,4.0,47,0.00,,,0.00,0.000000,,2013-01-09 09:22:00,
2013-01-09 01:32:00,44.0,25.0,-100.00,SSE,153,3.0,4.0,47,0.00,,,0.00,0.000000,,2013-01-09 09:32:00,
2013-01-09 01:42:00,44.0,25.0,-100.00,SSE,153,3.0,4.0,47,0.00,,,0.00,0.000000,,2013-01-09 09:42:00,
2013-01-09 01:53:00,44.0,25.0,-100.00,SSE,153,3.0,4.0,47,0.00,,,0.00,0.000000,,2013-01-09 09:53:00,
2013-01-09 02:00:00,46.0,25.0,-100.00,East,101,0.0,4.0,43,0.00,,,0.00,0.000000,,2013-01-09 10:00:00,
2013-01-09 02:32:00,46.0,25.0,-100.00,East,101,0.0,4.0,43,0.00,,,0.00,0.000000,,2013-01-09 10:32:00,
2013-01-09 02:42:00,46.0,25.0,-100.00,East,101,0.0,4.0,43,0.00,,,0.00,0.000000,,2013-01-09 10:42:00,
2013-01-09 02:52:00,46.0,25.0,-100.00,East,101,0.0,4.0,43,0.00,,,0.00,0.000000,,2013-01-09 10:52:00,
2013-01-09 03:00:00,47.0,27.0,-100.00,WSW,246,1.0,4.0,45,0.00,,,0.00,0.000000,,2013-01-09 11:00:00,
2013-01-09 03:33:00,47.0,27.0,-100.00,WSW,246,1.0,4.0,45,0.00,,,0.00,0.000000,,2013-01-09 11:33:00,
2013-01-09 03:42:00,47.0,27.0,-100.00,WSW,246,1.0,4.0,45,0.00,,,0.00,0.000000,,2013-01-09 11:42:00,
2013-01-09 03:53:00,47.0,27.0,-100.00,WSW,246,1.0,4.0,45,0.00,,,0.00,0.000000,,2013-01-09 11:53:00,
2013-01-09 04:00:00,44.0,25.0,-100.00,WSW,237,1.0,4.0,47,0.00,,,-99.99,0.000000,,2013-01-09 12:00:00,
2013-01-09 04:23:00,44.0,25.0,-100.00,WSW,237,1.0,4.0,47,0.00,,,-99.99,0.000000,,2013-01-09 12:23:00,
2013-01-09 04:33:00,44.0,25.0,-100.00,WSW,237,1.0,4.0,47,0.00,,,-99.99,0.000000,,2013-01-09 12:33:00,
2013-01-09 04:43:00,44.0,25.0,-100.00,WSW,237,1.0,4.0,47,0.00,,,-99.99,0.000000,,2013-01-09 12:43:00,
2013-01-09 04:53:00,44.0,25.0,-100.00,WSW,237,1.0,4.0,47,0.00,,,-99.99,0.000000,,2013-01-09 12:53:00,
2013-01-09 05:00:00,44.0,25.0,-100.00,West,265,0.0,3.0,47,0.00,,,0.00,0.000000,,2013-01-09 13:00:00,
2013-01-09 05:23:00,44.0,25.0,-100.00,West,265,0.0,3.0,47,0.00,,,0.00,0.000000,,2013-01-09 13:23:00,
2013-01-09 05:33:00,44.0,25.0,-100.00,West,265,0.0,3.0,47,0.00,,,0.00,0.000000,,2013-01-09 13:33:00,
2013-01-09 05:43:00,44.0,25.0,-100.00,West,265,0.0,3.0,47,0.00,,,0.00,0.000000,,2013-01-09 13:43:00,
2013-01-09 05:52:00,44.0,25.0,-100.00,West,265,0.0,3.0,47,0.00,,,0.00,0.000000,,2013-01-09 13:52:00,
2013-01-09 06:00:00,45.0,27.0,-100.00,WNW,285,0.0,2.0,48,0.00,,,0.00,0.000000,,2013-01-09 14:00:00,
2013-01-09 06:23:00,45.0,27.0,-100.00,WNW,285,0.0,2.0,48,0.00,,,0.00,0.000000,,2013-01-09 14:23:00,
2013-01-09 06:33:00,45.0,27.0,-100.00,WNW,285,0.0,2.0,48,0.00,,,0.00,0.000000,,2013-01-09 14:33:00,
2013-01-09 06:43:00,45.0,27.0,-100.00,WNW,285,0.0,2.0,48,0.00,,,0.00,0.000000,,2013-01-09 14:43:00,
2013-01-09 06:53:00,45.0,27.0,-100.00,WNW,285,0.0,2.0,48,0.00,,,0.00,0.000000,,2013-01-09 14:53:00,
2013-01-09 07:00:00,44.0,25.0,-100.00,SSE,150,0.0,4.0,46,0.00,,,-99.99,0.000000,,2013-01-09 15:00:00,
2013-01-09 07:23:00,44.0,25.0,-100.00,SSE,150,0.0,4.0,46,0.00,,,-99.99,0.000000,,2013-01-09 15:23:00,
2013-01-09 07:33:00,44.0,25.0,-100.00,SSE,150,0.0,4.0,46,0.00,,,-99.99,0.000000,,2013-01-09 15:33:00,
2013-01-09 07:43:00,44.0,25.0,-100.00,SSE,150,0.0,4.0,46,0.00,,,-99.99,0.000000,,2013-01-09 15:43:00,
2013-01-09 07:53:00,44.0,25.0,-100.00,SSE,150,0.0,4.0,46,0.00,,,-99.99,0.000000,,2013-01-09 15:53:00,
2013-01-09 08:00:00,46.0,26.0,-100.00,East,88,0.0,2.0,46,0.00,,,0.00,26.000000,,2013-01-09 16:00:00,
2013-01-09 08:23:00,46.0,26.0,-100.00,East,88,0.0,2.0,46,0.00,,,0.00,26.000000,,2013-01-09 16:23:00,
2013-01-09 08:33:00,46.0,26.0,-100.00,East,88,0.0,2.0,46,0.00,,,0.00,26.000000,,2013-01-09 16:33:00,
2013-01-09 08:43:00,46.0,26.0,-100.00,East,88,0.0,2.0,46,0.00,,,0.00,26.000000,,2013-01-09 16:43:00,
2013-01-09 08:53:00,46.0,26.0,-100.00,East,88,0.0,2.0,46,0.00,,,0.00,26.000000,,2013-01-09 16:53:00,
2013-01-09 09:00:00,54.0,28.0,-100.00,ESE,118,1.0,4.0,37,0.00,,,0.00,93.000000,,2013-01-09 17:00:00,
2013-01-09 09:23:00,54.0,28.0,-100.00,ESE,118,1.0,4.0,37,0.00,,,0.00,93.000000,,2013-01-09 17:23:00,
2013-01-09 09:33:00,54.0,28.0,-100.00,ESE,118,1.0,4.0,37,0.00,,,0.00,93.000000,,2013-01-09 17:33:00,
2013-01-09 09:43:00,54.0,28.0,-100.00,ESE,118,1.0,4.0,37,0.00,,,0.00,93.000000,,2013-01-09 17:43:00,
2013-01-09 09:53:00,54.0,28.0,-100.00,ESE,118,1.0,4.0,37,0.00,,,0.00,93.000000,,2013-01-09 17:53:00,
2013-01-09 10:00:00,59.0,30.0,-100.00,SE,124,3.0,6.0,33,0.00,,,-99.99,383.000000,,2013-01-09 18:00:00,
2013-01-09 10:24:00,59.0,30.0,-100.00,SE,124,3.0,6.0,33,0.00,,,-99.99,383.000000,,2013-01-09 18:24:00,
2013-01-09 10:33:00,59.0,30.0,-100.00,SE,124,3.0,6.0,33,0.00,,,-99.99,383.000000,,2013-01-09 18:33:00,
2013-01-09 10:43:00,59.0,30.0,-100.00,SE,124,3.0,6.0,33,0.00,,,-99.99,383.000000,,2013-01-09 18:43:00,
2013-01-09 10:53:00,59.0,30.0,-100.00,SE,124,3.0,6.0,33,0.00,,,-99.99,383.000000,,2013-01-09 18:53:00,
2013-01-09 12:00:00,61.0,29.0,-100.00,WSW,258,2.0,10.0,29,-99.99,,,0.00,555.000000,,2013-01-09 20:00:00,
2013-01-09 12:33:00,61.0,29.0,-100.00,WSW,258,2.0,10.0,29,-99.99,,,0.00,555.000000,,2013-01-09 20:33:00,
2013-01-09 12:43:00,61.0,29.0,-100.00,WSW,258,2.0,10.0,29,-99.99,,,0.00,555.000000,,2013-01-09 20:43:00,
2013-01-09 12:53:00,61.0,29.0,-100.00,WSW,258,2.0,10.0,29,-99.99,,,0.00,555.000000,,2013-01-09 20:53:00,
2013-01-09 13:00:00,57.0,27.0,-100.00,NE,54,2.0,6.0,32,0.00,,,0.00,428.000000,,2013-01-09 21:00:00,
2013-01-09 13:33:00,57.0,27.0,-100.00,NE,54,2.0,6.0,32,0.00,,,0.00,428.000000,,2013-01-09 21:33:00,
2013-01-09 13:43:00,57.0,27.0,-100.00,NE,54,2.0,6.0,32,0.00,,,0.00,428.000000,,2013-01-09 21:43:00,
2013-01-09 13:53:00,57.0,27.0,-100.00,NE,54,2.0,6.0,32,0.00,,,0.00,428.000000,,2013-01-09 21:53:00,
2013-01-09 14:00:00,56.0,28.0,-100.00,ENE,57,2.0,5.0,34,0.00,,,0.00,332.000000,,2013-01-09 22:00:00,
2013-01-09 14:23:00,56.0,28.0,-100.00,ENE,57,2.0,5.0,34,0.00,,,0.00,332.000000,,2013-01-09 22:23:00,
2013-01-09 14:33:00,56.0,28.0,-100.00,ENE,57,2.0,5.0,34,0.00,,,0.00,332.000000,,2013-01-09 22:33:00,
2013-01-09 14:43:00,56.0,28.0,-100.00,ENE,57,2.0,5.0,34,0.00,,,0.00,332.000000,,2013-01-09 22:43:00,
2013-01-09 14:52:00,56.0,28.0,-100.00,ENE,57,2.0,5.0,34,0.00,,,0.00,332.000000,,2013-01-09 22:52:00,
2013-01-09 15:00:00,52.0,27.0,-100.00,NNW,333,1.0,5.0,37,0.00,,,0.00,202.000000,,2013-01-09 23:00:00,
2013-01-09 15:33:00,52.0,27.0,-100.00,NNW,333,1.0,5.0,37,0.00,,,0.00,202.000000,,2013-01-09 23:33:00,
2013-01-09 15:43:00,52.0,27.0,-100.00,NNW,333,1.0,5.0,37,0.00,,,0.00,202.000000,,2013-01-09 23:43:00,
2013-01-09 15:53:00,52.0,27.0,-100.00,NNW,333,1.0,5.0,37,0.00,,,0.00,202.000000,,2013-01-09 23:53:00,
2013-01-09 16:00:00,51.0,28.0,-100.00,NNE,32,0.0,0.0,40,-99.99,,,-99.99,0.000000,,2013-01-10 00:00:00,
2013-01-09 16:33:00,51.0,28.0,-100.00,NNE,32,0.0,0.0,40,-99.99,,,-99.99,0.000000,,2013-01-10 00:33:00,
2013-01-09 16:43:00,51.0,28.0,-100.00,NNE,32,0.0,0.0,40,-99.99,,,-99.99,0.000000,,2013-01-10 00:43:00,
2013-01-09 16:53:00,51.0,28.0,-100.00,NNE,32,0.0,0.0,40,-99.99,,,-99.99,0.000000,,2013-01-10 00:53:00,
2013-01-09 17:00:00,49.0,28.0,-100.00,WNW,298,1.0,5.0,44,0.00,,,-99.99,24.000000,,2013-01-10 01:00:00,
2013-01-09 17:33:00,49.0,28.0,-100.00,WNW,298,1.0,5.0,44,0.00,,,-99.99,24.000000,,2013-01-10 01:33:00,
2013-01-09 17:43:00,49.0,28.0,-100.00,WNW,298,1.0,5.0,44,0.00,,,-99.99,24.000000,,2013-01-10 01:43:00,
2013-01-09 17:53:00,49.0,28.0,-100.00,WNW,298,1.0,5.0,44,0.00,,,-99.99,24.000000,,2013-01-10 01:53:00,
2013-01-09 18:00:00,48.0,28.0,-100.00,West,266,4.0,12.0,45,0.00,,,-99.99,0.000000,,2013-01-10 02:00:00,
2013-01-09 18:22:00,48.0,28.0,-100.00,West,266,4.0,12.0,45,0.00,,,-99.99,0.000000,,2013-01-10 02:22:00,
2013-01-09 18:33:00,48.0,28.0,-100.00,West,266,4.0,12.0,45,0.00,,,-99.99,0.000000,,2013-01-10 02:33:00,
2013-01-09 18:43:00,48.0,28.0,-100.00,West,266,4.0,12.0,45,0.00,,,-99.99,0.000000,,2013-01-10 02:43:00,
2013-01-09 18:52:00,48.0,28.0,-100.00,West,266,4.0,12.0,45,0.00,,,-99.99,0.000000,,2013-01-10 02:52:00,
2013-01-09 19:00:00,48.0,27.0,-100.00,West,272,6.0,16.0,44,0.00,,,-99.99,0.000000,,2013-01-10 03:00:00,
2013-01-09 19:22:00,48.0,27.0,-100.00,West,272,6.0,16.0,44,0.00,,,-99.99,0.000000,,2013-01-10 03:22:00,
2013-01-09 19:33:00,48.0,27.0,-100.00,West,272,6.0,16.0,44,0.00,,,-99.99,0.000000,,2013-01-10 03:33:00,
2013-01-09 19:43:00,48.0,27.0,-100.00,West,272,6.0,16.0,44,0.00,,,-99.99,0.000000,,2013-01-10 03:43:00,
2013-01-09 19:52:00,48.0,27.0,-100.00,West,272,6.0,16.0,44,0.00,,,-99.99,0.000000,,2013-01-10 03:52:00,
2013-01-09 20:00:00,46.0,27.0,-100.00,West,268,3.0,12.0,47,0.00,,,-99.99,0.000000,,2013-01-10 04:00:00,
2013-01-09 20:32:00,46.0,27.0,-100.00,West,268,3.0,12.0,47,0.00,,,-99.99,0.000000,,2013-01-10 04:32:00,
2013-01-09 20:43:00,46.0,27.0,-100.00,West,268,3.0,12.0,47,0.00,,,-99.99,0.000000,,2013-01-10 04:43:00,
2013-01-09 20:52:00,46.0,27.0,-100.00,West,268,3.0,12.0,47,0.00,,,-99.99,0.000000,,2013-01-10 04:52:00,
2013-01-09 21:00:00,44.0,25.0,-100.00,West,271,4.0,10.0,47,0.00,,,-99.99,0.000000,,2013-01-10 05:00:00,
2013-01-09 21:33:00,44.0,25.0,-100.00,West,271,4.0,10.0,47,0.00,,,-99.99,0.000000,,2013-01-10 05:33:00,
2013-01-09 21:43:00,44.0,25.0,-100.00,West,271,4.0,10.0,47,0.00,,,-99.99,0.000000,,2013-01-10 05:43:00,
2013-01-09 21:52:00,44.0,25.0,-100.00,West,271,4.0,10.0,47,0.00,,,-99.99,0.000000,,2013-01-10 05:52:00,
2013-01-09 22:00:00,43.0,25.0,-100.00,NNE,20,6.0,13.0,49,0.00,,,-99.99,0.000000,,2013-01-10 06:00:00,
2013-01-09 22:32:00,43.0,25.0,-100.00,NNE,20,6.0,13.0,49,0.00,,,-99.99,0.000000,,2013-01-10 06:32:00,
2013-01-09 22:42:00,43.0,25.0,-100.00,NNE,20,6.0,13.0,49,0.00,,,-99.99,0.000000,,2013-01-10 06:42:00,
2013-01-09 22:52:00,43.0,25.0,-100.00,NNE,20,6.0,13.0,49,0.00,,,-99.99,0.000000,,2013-01-10 06:52:00,
2013-01-09 23:00:00,43.0,27.0,-100.00,West,273,10.0,26.0,53,0.00,,,-99.99,0.000000,,2013-01-10 07:00:00,
2013-01-09 23:22:00,43.0,27.0,-100.00,West,273,10.0,26.0,53,0.00,,,-99.99,0.000000,,2013-01-10 07:22:00,
2013-01-09 23:32:00,43.0,27.0,-100.00,West,273,10.0,26.0,53,0.00,,,-99.99,0.000000,,2013-01-10 07:32:00,
2013-01-09 23:42:00,43.0,27.0,-100.00,West,273,10.0,26.0,53,0.00,,,-99.99,0.000000,,2013-01-10 07:42:00,
2013-01-09 23:52:00,43.0,27.0,-100.00,West,273,10.0,26.0,53,0.00,,,-99.99,0.000000,,2013-01-10 07:52:00,